createdAt,value
2023-02-09T00:02:57.936Z,103021.28
2023-02-09T00:06:02.308Z,103012.81
2023-02-09T00:09:04.778Z,103010.78
2023-02-09T00:12:26.154Z,103001.63
2023-02-09T00:15:28.499Z,103023.81
2023-02-09T00:18:33.224Z,103022.16
2023-02-09T00:21:35.649Z,103033.44
2023-02-09T00:24:38.241Z,103003.56
2023-02-09T00:27:40.578Z,103031.31
2023-02-09T00:30:43.393Z,103024.69
2023-02-09T00:33:45.955Z,103013.19
2023-02-09T00:36:48.495Z,102993.59
2023-02-09T00:39:52.108Z,103018.81
2023-02-09T00:42:54.866Z,103022.13
2023-02-09T00:45:57.305Z,102991.19
2023-02-09T00:48:59.869Z,103028.50
2023-02-09T00:52:02.470Z,102978.69
2023-02-09T00:55:05.197Z,103015.69
2023-02-09T00:58:07.945Z,102995.97
2023-02-09T01:01:13.460Z,102984.94
2023-02-09T01:04:16.268Z,103000.69
2023-02-09T01:07:18.628Z,103010.03
2023-02-09T01:10:21.225Z,103011.41
2023-02-09T01:13:25.213Z,103014.81
2023-02-09T01:16:31.759Z,102978.84
2023-02-09T01:19:34.548Z,103009.78
2023-02-09T01:22:37.655Z,103009.78
2023-02-09T01:25:39.981Z,103007.44
2023-02-09T01:28:42.841Z,103014.31
2023-02-09T01:31:45.843Z,102993.09
2023-02-09T01:34:55.559Z,102998.53
2023-02-09T01:37:58.041Z,102996.34
2023-02-09T01:41:01.880Z,102988.44
2023-02-09T01:44:12.457Z,102983.53
2023-02-09T01:47:16.990Z,102940.94
2023-02-09T01:50:20.404Z,102905.53
2023-02-09T01:53:22.966Z,102974.97
2023-02-09T01:56:30.862Z,102907.06
2023-02-09T01:59:36.390Z,102967.81
2023-02-09T02:02:40.093Z,102970.97
2023-02-09T02:05:45.831Z,102929.81
2023-02-09T02:08:56.151Z,102968.22
2023-02-09T02:11:59.035Z,102961.34
2023-02-09T02:15:01.461Z,102940.38
2023-02-09T02:18:18.965Z,102971.38
2023-02-09T02:21:39.751Z,102975.75
2023-02-09T02:25:00.813Z,102967.84
2023-02-09T02:28:27.526Z,102970.38
2023-02-09T02:31:48.426Z,102960.31
2023-02-09T02:34:55.323Z,102957.47
2023-02-09T02:38:00.442Z,102960.72
2023-02-09T02:41:57.317Z,102955.53
2023-02-09T02:45:15.917Z,102954.75
2023-02-09T02:48:21.028Z,102912.75
2023-02-09T02:51:35.358Z,102950.38
2023-02-09T02:54:46.592Z,102947.38
2023-02-09T02:57:53.565Z,102930.09
2023-02-09T03:00:59.452Z,102954.06
2023-02-09T03:04:04.959Z,102944.22
2023-02-09T03:07:08.345Z,102959.72
2023-02-09T03:10:34.801Z,102955.44
2023-02-09T03:14:01.352Z,102948.91
2023-02-09T03:17:13.567Z,102954.22
2023-02-09T03:20:37.830Z,102917.34
2023-02-09T03:23:48.536Z,102945.47
2023-02-09T03:27:13.338Z,102965.69
2023-02-09T03:30:18.183Z,102928.28
2023-02-09T03:33:24.974Z,102921.97
2023-02-09T03:36:33.677Z,102914.94
2023-02-09T03:39:36.334Z,102942.63
2023-02-09T03:42:38.924Z,102940.19
2023-02-09T03:45:41.379Z,102906.00
2023-02-09T03:48:43.780Z,102898.44
2023-02-09T03:51:46.358Z,102928.34
2023-02-09T03:54:48.798Z,102863.88
2023-02-09T03:57:51.301Z,102887.06
2023-02-09T04:01:04.704Z,102880.63
2023-02-09T04:04:07.511Z,102918.88
2023-02-09T04:07:09.922Z,102892.41
2023-02-09T04:10:12.268Z,102903.19
2023-02-09T04:13:15.295Z,102925.88
2023-02-09T04:16:20.846Z,102890.50
2023-02-09T04:19:23.678Z,102938.63
2023-02-09T04:22:26.310Z,102936.34
2023-02-09T04:25:28.714Z,102921.44
2023-02-09T04:28:31.254Z,102890.44
2023-02-09T04:31:35.007Z,102917.81
2023-02-09T04:34:37.461Z,102916.31
2023-02-09T04:37:39.865Z,102893.09
2023-02-09T04:40:43.585Z,102881.53
2023-02-09T04:43:46.867Z,102908.91
2023-02-09T04:46:49.209Z,102910.44
2023-02-09T04:49:51.530Z,102918.59
2023-02-09T04:52:53.973Z,102908.50
2023-02-09T04:55:56.369Z,102909.44
2023-02-09T04:59:17.083Z,102906.53
2023-02-09T05:02:19.478Z,102832.84
2023-02-09T05:05:22.066Z,102883.03
2023-02-09T05:08:25.299Z,102878.56
2023-02-09T05:11:27.745Z,102873.81
2023-02-09T05:14:30.129Z,102867.50
2023-02-09T05:17:33.289Z,102906.19
2023-02-09T05:20:38.731Z,102904.56
2023-02-09T05:23:41.779Z,102894.25
2023-02-09T05:26:44.274Z,102895.34
2023-02-09T05:29:47.219Z,102862.34
2023-02-09T05:32:49.598Z,102899.31
2023-02-09T05:35:53.745Z,102827.28
2023-02-09T05:38:56.387Z,102856.13
2023-02-09T05:42:16.740Z,102898.63
2023-02-09T05:45:19.316Z,102904.44
2023-02-09T05:48:21.670Z,102864.75
2023-02-09T05:51:24.058Z,102871.00
2023-02-09T05:54:26.498Z,102905.66
2023-02-09T05:57:28.875Z,102872.34
2023-02-09T06:00:31.623Z,102914.75
2023-02-09T06:03:34.088Z,102865.19
2023-02-09T06:06:37.138Z,102877.81
2023-02-09T06:09:39.518Z,102898.34
2023-02-09T06:12:41.872Z,102880.31
2023-02-09T06:15:44.579Z,102882.28
2023-02-09T06:18:47.036Z,102916.19
2023-02-09T06:21:49.537Z,102925.94
2023-02-09T06:24:51.940Z,102928.09
2023-02-09T06:27:54.315Z,102897.41
2023-02-09T06:30:56.772Z,102936.59
2023-02-09T06:33:59.322Z,102898.66
2023-02-09T06:37:01.890Z,102941.66
2023-02-09T06:40:04.818Z,102899.69
2023-02-09T06:43:07.839Z,102926.66
2023-02-09T06:46:12.919Z,102913.84
2023-02-09T06:49:15.573Z,102950.06
2023-02-09T06:52:18.457Z,102958.56
2023-02-09T06:55:20.794Z,102928.53
2023-02-09T06:58:23.221Z,102926.75
2023-02-09T07:01:26.311Z,102949.91
2023-02-09T07:04:28.822Z,102942.72
2023-02-09T07:07:31.285Z,102911.47
2023-02-09T07:10:33.719Z,102928.16
2023-02-09T07:13:36.729Z,102920.53
2023-02-09T07:16:39.252Z,102941.91
2023-02-09T07:19:41.674Z,102914.53
2023-02-09T07:22:44.201Z,102925.97
2023-02-09T07:25:46.534Z,102932.09
2023-02-09T07:28:48.974Z,102933.44
2023-02-09T07:31:51.444Z,102953.44
2023-02-09T07:34:54.226Z,102944.94
2023-02-09T07:37:56.593Z,102951.56
2023-02-09T07:41:00.589Z,102930.44
2023-02-09T07:44:05.456Z,102933.81
2023-02-09T07:47:07.802Z,102910.16
2023-02-09T07:50:10.449Z,102926.47
2023-02-09T07:53:13.094Z,102950.44
2023-02-09T07:56:15.451Z,102956.56
2023-02-09T07:59:17.809Z,102948.56
2023-02-09T08:02:29.562Z,102935.53
2023-02-09T08:05:38.075Z,102919.63
2023-02-09T08:08:40.458Z,102953.50
2023-02-09T08:11:52.992Z,102939.94
2023-02-09T08:14:55.435Z,102910.53
2023-02-09T08:18:02.570Z,102930.75
2023-02-09T08:21:08.646Z,102921.22
2023-02-09T08:24:12.842Z,102887.22
2023-02-09T08:27:15.270Z,102890.69
2023-02-09T08:30:38.325Z,102897.53
2023-02-09T08:33:41.554Z,102880.16
2023-02-09T08:36:43.886Z,102908.69
2023-02-09T08:39:46.499Z,102890.63
2023-02-09T08:42:48.899Z,102922.78
2023-02-09T08:45:51.778Z,102901.38
2023-02-09T08:48:54.427Z,102886.63
2023-02-09T08:51:56.805Z,102897.03
2023-02-09T08:54:59.180Z,102846.84
2023-02-09T08:58:01.770Z,102882.31
2023-02-09T09:01:05.558Z,102863.28
2023-02-09T09:04:08.491Z,102912.53
2023-02-09T09:07:10.941Z,102914.28
2023-02-09T09:10:13.797Z,102892.63
2023-02-09T09:13:16.189Z,102913.50
2023-02-09T09:16:21.808Z,102887.53
2023-02-09T09:19:25.319Z,102910.84
2023-02-09T09:22:27.737Z,102883.19
2023-02-09T09:25:30.092Z,102884.94
2023-02-09T09:28:32.540Z,102904.81
2023-02-09T09:31:35.292Z,102882.97
2023-02-09T09:34:37.777Z,102895.28
2023-02-09T09:37:40.645Z,102896.06
2023-02-09T09:40:45.526Z,102877.03
2023-02-09T09:43:48.878Z,102883.97
2023-02-09T09:46:54.478Z,102877.72
2023-02-09T09:49:57.147Z,102869.63
2023-02-09T09:53:25.911Z,102885.06
2023-02-09T09:56:30.478Z,102868.47
2023-02-09T09:59:38.748Z,102842.50
2023-02-09T10:02:41.200Z,102856.13
2023-02-09T10:05:45.600Z,102845.50
2023-02-09T10:08:55.388Z,102863.84
2023-02-09T10:12:13.321Z,102863.09
2023-02-09T10:15:27.909Z,102829.91
2023-02-09T10:18:33.201Z,102852.31
2023-02-09T10:21:36.794Z,102834.47
2023-02-09T10:24:40.688Z,102847.69
2023-02-09T10:27:46.633Z,102840.66
2023-02-09T10:30:52.138Z,102803.31
2023-02-09T10:34:16.897Z,102804.81
2023-02-09T10:37:27.483Z,102818.03
2023-02-09T10:40:32.859Z,102830.06
2023-02-09T10:43:35.456Z,102817.44
2023-02-09T10:46:37.892Z,102812.81
2023-02-09T10:49:40.465Z,102830.91
2023-02-09T10:52:55.795Z,102812.03
2023-02-09T10:56:20.085Z,102816.78
2023-02-09T10:59:25.186Z,102812.88
2023-02-09T11:02:52.284Z,102820.78
2023-02-09T11:06:16.879Z,102815.09
2023-02-09T11:09:30.632Z,102791.28
2023-02-09T11:12:33.116Z,102794.19
2023-02-09T11:15:44.192Z,102821.84
2023-02-09T11:18:57.077Z,102798.66
2023-02-09T11:22:13.449Z,102815.25
2023-02-09T11:25:30.385Z,102825.28
2023-02-09T11:28:44.483Z,102816.88
2023-02-09T11:31:55.882Z,102816.56
2023-02-09T11:35:18.957Z,102798.06
2023-02-09T11:39:04.120Z,102809.44
2023-02-09T11:42:33.525Z,102819.91
2023-02-09T11:45:44.216Z,102825.56
2023-02-09T11:48:54.664Z,102798.63
2023-02-09T11:51:59.498Z,102796.16
2023-02-09T11:55:19.620Z,102782.25
2023-02-09T11:58:38.853Z,102777.09
2023-02-09T12:01:59.539Z,102797.81
2023-02-09T12:05:03.070Z,102772.06
2023-02-09T12:08:22.976Z,102786.88
2023-02-09T12:11:48.170Z,102787.22
2023-02-09T12:15:02.017Z,102772.75
2023-02-09T12:18:22.171Z,102780.53
2023-02-09T12:21:34.426Z,102771.28
2023-02-09T12:24:40.854Z,102745.69
2023-02-09T12:28:12.245Z,102753.75
2023-02-09T12:31:27.009Z,102754.19
2023-02-09T12:34:35.216Z,102758.78
2023-02-09T12:38:07.944Z,102751.50
2023-02-09T12:41:13.005Z,102733.13
2023-02-09T12:44:15.255Z,102746.44
2023-02-09T12:48:01.392Z,102742.41
2023-02-09T12:51:03.926Z,102747.81
2023-02-09T12:54:28.344Z,102746.72
2023-02-09T12:57:51.376Z,102735.91
2023-02-09T13:00:55.237Z,102726.41
2023-02-09T13:04:04.561Z,102702.44
2023-02-09T13:07:18.626Z,102716.72
2023-02-09T13:10:24.789Z,102702.22
2023-02-09T13:13:35.942Z,102738.69
2023-02-09T13:16:58.233Z,102697.25
2023-02-09T13:20:30.684Z,102722.81
2023-02-09T13:23:42.839Z,102723.72
2023-02-09T13:26:51.002Z,102716.31
2023-02-09T13:29:55.848Z,102715.41
2023-02-09T13:33:18.404Z,102704.09
2023-02-09T13:36:42.106Z,102701.50
2023-02-09T13:39:44.555Z,102691.09
2023-02-09T13:43:02.112Z,102691.78
2023-02-09T13:46:05.172Z,102671.72
2023-02-09T13:49:24.401Z,102645.25
2023-02-09T13:52:33.286Z,102692.94
2023-02-09T13:55:39.816Z,102698.97
2023-02-09T13:58:42.311Z,102686.91
2023-02-09T14:01:47.937Z,102662.72
2023-02-09T14:04:54.677Z,102672.22
2023-02-09T14:07:57.455Z,102683.34
2023-02-09T14:11:09.716Z,102672.19
2023-02-09T14:14:53.766Z,102679.03
2023-02-09T14:17:56.558Z,102648.88
2023-02-09T14:21:22.111Z,102674.78
2023-02-09T14:24:27.024Z,102653.69
2023-02-09T14:27:33.033Z,102667.66
2023-02-09T14:30:37.651Z,102673.66
2023-02-09T14:33:40.023Z,102663.06
2023-02-09T14:36:51.886Z,102643.69
2023-02-09T14:40:01.115Z,102660.28
2023-02-09T14:43:09.188Z,102661.50
2023-02-09T14:46:11.629Z,102630.94
2023-02-09T14:49:14.245Z,102658.25
2023-02-09T14:52:18.717Z,102657.94
2023-02-09T14:55:25.339Z,102664.56
2023-02-09T14:58:30.479Z,102654.22
2023-02-09T15:01:32.979Z,102650.72
2023-02-09T15:04:35.575Z,102645.34
2023-02-09T15:07:42.231Z,102652.97
2023-02-09T15:10:48.778Z,102644.66
2023-02-09T15:13:56.309Z,102624.16
2023-02-09T15:16:58.882Z,102617.25
2023-02-09T15:20:01.405Z,102635.59
2023-02-09T15:23:04.022Z,102639.28
2023-02-09T15:26:09.624Z,102633.59
2023-02-09T15:29:14.374Z,102601.00
2023-02-09T15:32:18.890Z,102597.41
2023-02-09T15:35:25.028Z,102629.16
2023-02-09T15:38:28.103Z,102626.91
2023-02-09T15:41:48.974Z,102620.47
2023-02-09T15:45:21.047Z,102627.19
2023-02-09T15:48:23.545Z,102588.38
2023-02-09T15:51:31.252Z,102621.63
2023-02-09T15:54:34.386Z,102631.19
2023-02-09T15:57:36.993Z,102643.34
2023-02-09T16:00:39.426Z,102596.13
2023-02-09T16:03:42.153Z,102631.38
2023-02-09T16:06:50.694Z,102629.03
2023-02-09T16:09:53.105Z,102629.53
2023-02-09T16:12:56.851Z,102604.66
2023-02-09T16:16:14.784Z,102636.38
2023-02-09T16:19:21.455Z,102616.75
2023-02-09T16:22:25.222Z,102590.13
2023-02-09T16:25:29.227Z,102586.63
2023-02-09T16:28:31.764Z,102617.88
2023-02-09T16:31:35.417Z,102597.75
2023-02-09T16:34:37.802Z,102607.53
2023-02-09T16:37:41.532Z,102608.41
2023-02-09T16:40:44.534Z,102648.00
2023-02-09T16:43:47.070Z,102614.69
2023-02-09T16:46:52.668Z,102638.53
2023-02-09T16:50:06.070Z,102641.09
2023-02-09T16:53:17.275Z,102611.63
2023-02-09T16:56:20.303Z,102603.97
2023-02-09T16:59:22.829Z,102623.09
2023-02-09T17:02:25.473Z,102636.72
2023-02-09T17:05:31.548Z,102624.84
2023-02-09T17:08:35.685Z,102635.00
2023-02-09T17:11:38.290Z,102600.16
2023-02-09T17:14:40.969Z,102633.31
2023-02-09T17:17:48.647Z,102629.06
2023-02-09T17:20:56.434Z,102619.81
2023-02-09T17:24:00.006Z,102625.91
2023-02-09T17:27:02.328Z,102626.06
2023-02-09T17:30:05.370Z,102602.16
2023-02-09T17:33:16.619Z,102584.66
2023-02-09T17:36:28.605Z,102565.84
2023-02-09T17:39:31.814Z,102627.63
2023-02-09T17:42:37.437Z,102604.53
2023-02-09T17:45:39.951Z,102642.84
2023-02-09T17:48:42.765Z,102591.00
2023-02-09T17:51:47.243Z,102601.59
2023-02-09T17:54:50.920Z,102600.31
2023-02-09T17:57:57.723Z,102621.44
2023-02-09T18:01:00.466Z,102614.25
2023-02-09T18:04:03.047Z,102594.94
2023-02-09T18:07:05.678Z,102633.97
2023-02-09T18:10:08.467Z,102639.88
2023-02-09T18:13:19.478Z,102636.22
2023-02-09T18:16:22.132Z,102565.91
2023-02-09T18:19:25.905Z,102593.50
2023-02-09T18:22:28.629Z,102629.03
2023-02-09T18:25:37.058Z,102591.47
2023-02-09T18:28:40.043Z,102609.47
2023-02-09T18:31:44.315Z,102598.94
2023-02-09T18:34:46.988Z,102624.88
2023-02-09T18:37:50.532Z,102600.72
2023-02-09T18:40:53.327Z,102636.59
2023-02-09T18:43:56.440Z,102641.06
2023-02-09T18:47:02.611Z,102612.84
2023-02-09T18:50:05.558Z,102637.63
2023-02-09T18:53:10.865Z,102634.09
2023-02-09T18:56:21.884Z,102618.19
2023-02-09T18:59:31.533Z,102639.81
2023-02-09T19:02:34.198Z,102637.22
2023-02-09T19:05:36.885Z,102619.44
2023-02-09T19:08:39.859Z,102640.13
2023-02-09T19:11:42.666Z,102615.72
2023-02-09T19:14:45.891Z,102602.31
2023-02-09T19:17:48.807Z,102627.44
2023-02-09T19:20:55.550Z,102602.47
2023-02-09T19:23:58.301Z,102610.28
2023-02-09T19:27:00.953Z,102634.56
2023-02-09T19:30:03.958Z,102606.56
2023-02-09T19:33:06.786Z,102632.03
2023-02-09T19:36:10.070Z,102584.50
2023-02-09T19:39:12.982Z,102610.72
2023-02-09T19:42:15.669Z,102624.44
2023-02-09T19:45:18.457Z,102606.63
2023-02-09T19:48:21.638Z,102629.66
2023-02-09T19:51:24.749Z,102600.59
2023-02-09T19:54:27.115Z,102600.31
2023-02-09T19:57:29.859Z,102631.97
2023-02-09T20:00:32.262Z,102628.94
2023-02-09T20:03:36.246Z,102601.28
2023-02-09T20:06:38.885Z,102633.06
2023-02-09T20:09:42.106Z,102603.19
2023-02-09T20:15:52.360Z,102624.09
2023-02-09T20:18:55.160Z,102624.94
2023-02-09T20:21:58.073Z,102611.69
2023-02-09T20:25:00.509Z,102611.19
2023-02-09T20:28:03.504Z,102570.28
2023-02-09T20:31:07.240Z,102619.25
2023-02-09T20:34:13.172Z,102568.00
2023-02-09T20:37:15.911Z,102608.88
2023-02-09T20:40:18.862Z,102566.28
2023-02-09T20:43:40.694Z,102566.03
2023-02-09T20:46:56.510Z,102559.56
2023-02-09T20:50:00.510Z,102594.13
2023-02-09T20:53:03.362Z,102583.66
2023-02-09T20:56:06.406Z,102608.63
2023-02-09T20:59:09.379Z,102606.88
2023-02-09T21:02:13.621Z,102573.97
2023-02-09T21:05:16.739Z,102611.09
2023-02-09T21:08:20.048Z,102610.09
2023-02-09T21:11:23.512Z,102612.34
2023-02-09T21:14:27.670Z,102619.53
2023-02-09T21:17:34.870Z,102581.91
2023-02-09T21:20:37.990Z,102598.75
2023-02-09T21:23:41.557Z,102582.34
2023-02-09T21:26:44.261Z,102578.44
2023-02-09T21:29:46.789Z,102582.44
2023-02-09T21:32:49.298Z,102613.41
2023-02-09T21:35:51.917Z,102618.31
2023-02-09T21:38:54.484Z,102584.75
2023-02-09T21:42:15.444Z,102611.72
2023-02-09T21:45:18.019Z,102602.97
2023-02-09T21:48:20.565Z,102577.69
2023-02-09T21:51:23.984Z,102607.19
2023-02-09T21:54:28.196Z,102576.38
2023-02-09T21:57:31.668Z,102567.94
2023-02-09T22:00:34.299Z,102605.53
2023-02-09T22:03:40.104Z,102575.22
2023-02-09T22:06:42.553Z,102603.91
2023-02-09T22:09:44.892Z,102569.66
2023-02-09T22:12:47.309Z,102564.16
2023-02-09T22:15:49.979Z,102574.28
2023-02-09T22:18:52.565Z,102595.88
2023-02-09T22:21:57.922Z,102567.09
2023-02-09T22:25:00.326Z,102602.66
2023-02-09T22:28:03.466Z,102594.88
2023-02-09T22:31:11.645Z,102607.72
2023-02-09T22:34:14.147Z,102576.34
2023-02-09T22:37:16.496Z,102601.78
2023-02-09T22:40:19.038Z,102603.22
2023-02-09T22:43:21.453Z,102568.44
2023-02-09T22:46:26.820Z,102566.31
2023-02-09T22:49:29.331Z,102571.91
2023-02-09T22:52:31.985Z,102593.63
2023-02-09T22:55:34.360Z,102554.78
2023-02-09T22:58:36.833Z,102559.81
2023-02-09T23:01:39.799Z,102591.44
2023-02-09T23:04:42.481Z,102587.56
2023-02-09T23:07:46.365Z,102554.00
2023-02-09T23:10:48.754Z,102595.53
2023-02-09T23:14:07.071Z,102544.06
2023-02-09T23:17:11.218Z,102542.00
2023-02-09T23:20:13.556Z,102559.03
2023-02-09T23:23:16.378Z,102511.66
2023-02-09T23:26:19.894Z,102576.38
2023-02-09T23:29:22.426Z,102546.00
2023-02-09T23:32:25.149Z,102534.00
2023-02-09T23:35:27.540Z,102557.47
2023-02-09T23:38:30.130Z,102550.91
2023-02-09T23:41:33.566Z,102570.28
2023-02-09T23:44:38.703Z,102526.50
2023-02-09T23:47:41.045Z,102516.31
2023-02-09T23:50:43.390Z,102559.81
2023-02-09T23:53:47.255Z,102523.56
2023-02-09T23:56:50.401Z,102561.63
2023-02-09T23:59:52.821Z,102526.56
